Terminal Aerodrome Forecast
Issued by NWS

Home | Current Version | Previous Version | Graphics & Text | Print | Product List | Glossary On
Versions: 1 2 3 4 5 6 7 8 9 10 11 12 13 14
000
FTUS45 KGGW 300500
TAFSDY
TAF
KSDY 300522Z 3006/3106 VRB05KT P6SM SCT200
     FM301500 27007KT P6SM FEW250
     FM301800 31013KT P6SM FEW250
     FM310300 VRB06KT P6SM FEW250
      AMD LTD TO CLD VIS AND WIND=

USA.gov is the U.S. government's official web portal to all federal, state and local government web resources and services.